Time;durP1;ratioP1;P1;durP2;ratioP2;P2;SDS_P1;SDS_P2;PMS_P1;PMS_P2;Temp;Humidity;BMP_temperature;BMP_pressure;BME280_temperature;BME280_humidity;BME280_pressure;Samples;Min_cycle;Max_cycle;Signal;HPM_P1;HPM_P2
2024/02/14 00:00:37;;;;;;;3;2.4;;;;;;;5.11;82.18262;95706.09;;;;
2024/02/14 00:01:38;;;;;;;3;2.4;;;;;;;5.11;82.18262;95706.09;;;;
2024/02/14 00:02:39;;;;;;;3;2.4;;;;;;;5.11;82.18262;95706.09;;;;
2024/02/14 00:03:40;;;;;;;3;2.4;;;;;;;5.11;82.18262;95706.09;;;;
2024/02/14 00:04:40;;;;;;;3;2.4;;;;;;;5.11;82.18262;95706.09;;;;
2024/02/14 00:05:41;;;;;;;3;2.4;;;;;;;5.11;82.18262;95706.09;;;;
2024/02/14 00:06:43;;;;;;;3;2.4;;;;;;;5.11;82.18262;95706.09;;;;
2024/02/14 00:07:43;;;;;;;3;2.4;;;;;;;5.11;82.18262;95706.09;;;;
2024/02/14 00:08:44;;;;;;;3.6;2.3;;;;;;;5.13;81.84863;95717.6;;;;
2024/02/14 00:09:45;;;;;;;3.6;2.3;;;;;;;5.13;81.84863;95717.6;;;;
2024/02/14 00:10:46;;;;;;;3.6;2.3;;;;;;;5.13;81.84863;95717.6;;;;
2024/02/14 00:11:47;;;;;;;3.6;2.3;;;;;;;5.13;81.84863;95717.6;;;;
2024/02/14 00:12:48;;;;;;;3.6;2.3;;;;;;;5.13;81.84863;95717.6;;;;
2024/02/14 00:13:49;;;;;;;3.6;2.3;;;;;;;5.13;81.84863;95717.6;;;;
2024/02/14 00:14:50;;;;;;;3.6;2.3;;;;;;;5.13;81.84863;95717.6;;;;
2024/02/14 00:15:51;;;;;;;3.6;2.3;;;;;;;5.13;81.84863;95717.6;;;;
2024/02/14 00:16:51;;;;;;;3.6;2.3;;;;;;;5.13;81.84863;95717.6;;;;
2024/02/14 00:17:52;;;;;;;3.6;2.3;;;;;;;5.13;81.84863;95717.6;;;;
2024/02/14 00:18:52;;;;;;;3.5;2.5;;;;;;;4.94;82.22461;95714.06;;;;
2024/02/14 00:19:52;;;;;;;3.5;2.5;;;;;;;4.94;82.22461;95714.06;;;;
2024/02/14 00:20:53;;;;;;;3.5;2.5;;;;;;;4.94;82.22461;95714.06;;;;
2024/02/14 00:21:54;;;;;;;3.5;2.5;;;;;;;4.94;82.22461;95714.06;;;;
2024/02/14 00:22:54;;;;;;;3.5;2.5;;;;;;;4.94;82.22461;95714.06;;;;
2024/02/14 00:23:58;;;;;;;3.5;2.5;;;;;;;4.94;82.22461;95714.06;;;;
2024/02/14 00:24:58;;;;;;;3.5;2.5;;;;;;;4.94;82.22461;95714.06;;;;
2024/02/14 00:25:59;;;;;;;3.5;2.5;;;;;;;4.94;82.22461;95714.06;;;;
2024/02/14 00:27:00;;;;;;;3.5;2.5;;;;;;;4.94;82.22461;95714.06;;;;
2024/02/14 00:28:00;;;;;;;3.5;2.5;;;;;;;4.94;82.22461;95714.06;;;;
2024/02/14 00:29:01;;;;;;;3.5;2.5;;;;;;;4.94;82.22461;95714.06;;;;
2024/02/14 00:30:03;;;;;;;3.45;2.3;;;;;;;4.94;82.25684;95710.13;;;;
2024/02/14 00:31:05;;;;;;;3.45;2.3;;;;;;;4.94;82.25684;95710.13;;;;
2024/02/14 00:32:05;;;;;;;3.45;2.3;;;;;;;4.94;82.25684;95710.13;;;;
2024/02/14 00:33:06;;;;;;;3.45;2.3;;;;;;;4.94;82.25684;95710.13;;;;
2024/02/14 00:34:07;;;;;;;3.45;2.3;;;;;;;4.94;82.25684;95710.13;;;;
2024/02/14 00:35:07;;;;;;;3.45;2.3;;;;;;;4.94;82.25684;95710.13;;;;
2024/02/14 00:36:08;;;;;;;3.45;2.3;;;;;;;4.94;82.25684;95710.13;;;;
2024/02/14 00:37:08;;;;;;;3.45;2.3;;;;;;;4.94;82.25684;95710.13;;;;
2024/02/14 00:38:09;;;;;;;3.45;2.3;;;;;;;4.94;82.25684;95710.13;;;;
2024/02/14 00:39:10;;;;;;;3.45;2.3;;;;;;;4.94;82.25684;95710.13;;;;
2024/02/14 00:40:11;;;;;;;3.45;2.3;;;;;;;4.94;82.25684;95710.13;;;;
2024/02/14 00:41:12;;;;;;;4.7;2.2;;;;;;;5.1;82.81836;95718.36;;;;
2024/02/14 00:42:12;;;;;;;4.7;2.2;;;;;;;5.1;82.81836;95718.36;;;;
2024/02/14 00:43:13;;;;;;;4.7;2.2;;;;;;;5.1;82.81836;95718.36;;;;
2024/02/14 00:44:16;;;;;;;4.7;2.2;;;;;;;5.1;82.81836;95718.36;;;;
2024/02/14 00:45:17;;;;;;;4.7;2.2;;;;;;;5.1;82.81836;95718.36;;;;
2024/02/14 00:46:17;;;;;;;4.7;2.2;;;;;;;5.1;82.81836;95718.36;;;;
2024/02/14 00:47:18;;;;;;;4.7;2.2;;;;;;;5.1;82.81836;95718.36;;;;
2024/02/14 00:48:18;;;;;;;4.7;2.2;;;;;;;5.1;82.81836;95718.36;;;;
2024/02/14 00:49:19;;;;;;;4.7;2.2;;;;;;;5.1;82.81836;95718.36;;;;
2024/02/14 00:50:20;;;;;;;4.7;2.2;;;;;;;5.1;82.81836;95718.36;;;;
2024/02/14 00:51:20;;;;;;;3.2;2.15;;;;;;;5.21;83.61328;95721.03;;;;
2024/02/14 00:52:21;;;;;;;3.2;2.15;;;;;;;5.21;83.61328;95721.03;;;;
2024/02/14 00:53:22;;;;;;;3.2;2.15;;;;;;;5.21;83.61328;95721.03;;;;
2024/02/14 00:54:22;;;;;;;3.2;2.15;;;;;;;5.21;83.61328;95721.03;;;;
2024/02/14 00:55:22;;;;;;;3.2;2.15;;;;;;;5.21;83.61328;95721.03;;;;
2024/02/14 00:56:23;;;;;;;3.2;2.15;;;;;;;5.21;83.61328;95721.03;;;;
2024/02/14 00:57:25;;;;;;;3.2;2.15;;;;;;;5.21;83.61328;95721.03;;;;
2024/02/14 00:58:26;;;;;;;3.2;2.15;;;;;;;5.21;83.61328;95721.03;;;;
2024/02/14 00:59:27;;;;;;;3.2;2.15;;;;;;;5.21;83.61328;95721.03;;;;
2024/02/14 01:00:27;;;;;;;3.2;2.15;;;;;;;5.21;83.61328;95721.03;;;;
2024/02/14 01:01:28;;;;;;;3.2;2.15;;;;;;;5.21;83.61328;95721.03;;;;
2024/02/14 01:02:29;;;;;;;3.45;2.3;;;;;;;5.46;83.70313;95726.59;;;;
2024/02/14 01:03:30;;;;;;;3.45;2.3;;;;;;;5.46;83.70313;95726.59;;;;
2024/02/14 01:04:30;;;;;;;3.45;2.3;;;;;;;5.46;83.70313;95726.59;;;;
2024/02/14 01:05:31;;;;;;;3.45;2.3;;;;;;;5.46;83.70313;95726.59;;;;
2024/02/14 01:06:31;;;;;;;3.45;2.3;;;;;;;5.46;83.70313;95726.59;;;;
2024/02/14 01:07:32;;;;;;;3.45;2.3;;;;;;;5.46;83.70313;95726.59;;;;
2024/02/14 01:08:33;;;;;;;3.45;2.3;;;;;;;5.46;83.70313;95726.59;;;;
2024/02/14 01:09:34;;;;;;;3.45;2.3;;;;;;;5.46;83.70313;95726.59;;;;
2024/02/14 01:10:34;;;;;;;3.45;2.3;;;;;;;5.46;83.70313;95726.59;;;;
2024/02/14 01:11:35;;;;;;;3.45;2.3;;;;;;;5.46;83.70313;95726.59;;;;
2024/02/14 01:12:35;;;;;;;2.5;2.3;;;;;;;5.64;83.72754;95731.12;;;;
2024/02/14 01:13:36;;;;;;;2.5;2.3;;;;;;;5.64;83.72754;95731.12;;;;
2024/02/14 01:14:37;;;;;;;2.5;2.3;;;;;;;5.64;83.72754;95731.12;;;;
2024/02/14 01:15:37;;;;;;;2.5;2.3;;;;;;;5.64;83.72754;95731.12;;;;
2024/02/14 01:16:38;;;;;;;2.5;2.3;;;;;;;5.64;83.72754;95731.12;;;;
2024/02/14 01:17:42;;;;;;;2.5;2.3;;;;;;;5.64;83.72754;95731.12;;;;
2024/02/14 01:18:43;;;;;;;2.5;2.3;;;;;;;5.64;83.72754;95731.12;;;;
2024/02/14 01:19:43;;;;;;;2.5;2.3;;;;;;;5.64;83.72754;95731.12;;;;
2024/02/14 01:20:44;;;;;;;2.5;2.3;;;;;;;5.64;83.72754;95731.12;;;;
2024/02/14 01:21:48;;;;;;;2.5;2.3;;;;;;;5.64;83.72754;95731.12;;;;
2024/02/14 01:22:48;;;;;;;2.5;2.3;;;;;;;5.64;83.72754;95731.12;;;;
2024/02/14 01:23:49;;;;;;;2.5;2.3;;;;;;;5.64;83.72754;95731.12;;;;
2024/02/14 01:24:49;;;;;;;2.5;2.3;;;;;;;5.64;83.72754;95731.12;;;;
2024/02/14 01:25:50;;;;;;;2.5;2.3;;;;;;;5.64;83.72754;95731.12;;;;
2024/02/14 01:26:50;;;;;;;2.5;2.3;;;;;;;5.64;83.72754;95731.12;;;;
2024/02/14 01:27:52;;;;;;;2.5;2.3;;;;;;;5.64;83.72754;95731.12;;;;
2024/02/14 01:28:52;;;;;;;2.5;2.3;;;;;;;5.64;83.72754;95731.12;;;;
2024/02/14 01:29:54;;;;;;;2.5;2.3;;;;;;;5.64;83.72754;95731.12;;;;
2024/02/14 01:30:56;;;;;;;2.5;2.3;;;;;;;5.64;83.72754;95731.12;;;;
2024/02/14 01:31:57;;;;;;;2.5;2.3;;;;;;;5.64;83.72754;95731.12;;;;
2024/02/14 01:32:57;;;;;;;2.5;2.3;;;;;;;5.64;83.72754;95731.12;;;;
2024/02/14 01:34:01;;;;;;;2.3;2.1;;;;;;;5.94;82.79785;95723.36;;;;
2024/02/14 01:35:02;;;;;;;2.3;2.1;;;;;;;5.94;82.79785;95723.36;;;;
2024/02/14 01:36:03;;;;;;;2.3;2.1;;;;;;;5.94;82.79785;95723.36;;;;
2024/02/14 01:37:04;;;;;;;2.3;2.1;;;;;;;5.94;82.79785;95723.36;;;;
2024/02/14 01:38:05;;;;;;;2.3;2.1;;;;;;;5.94;82.79785;95723.36;;;;
2024/02/14 01:39:10;;;;;;;2.3;2.1;;;;;;;5.94;82.79785;95723.36;;;;
2024/02/14 01:40:11;;;;;;;2.3;2.1;;;;;;;5.94;82.79785;95723.36;;;;
2024/02/14 01:41:13;;;;;;;2.3;2.1;;;;;;;5.94;82.79785;95723.36;;;;
2024/02/14 01:42:14;;;;;;;2.3;2.1;;;;;;;5.94;82.79785;95723.36;;;;
2024/02/14 01:43:14;;;;;;;2.3;2.1;;;;;;;5.94;82.79785;95723.36;;;;
2024/02/14 01:44:15;;;;;;;2.3;2.1;;;;;;;5.94;82.79785;95723.36;;;;
2024/02/14 01:45:16;;;;;;;2.4;1.85;;;;;;;6.02;82.68652;95727.66;;;;
2024/02/14 01:46:17;;;;;;;2.4;1.85;;;;;;;6.02;82.68652;95727.66;;;;
2024/02/14 01:47:19;;;;;;;2.4;1.85;;;;;;;6.02;82.68652;95727.66;;;;
2024/02/14 01:48:20;;;;;;;2.4;1.85;;;;;;;6.02;82.68652;95727.66;;;;
2024/02/14 01:49:21;;;;;;;2.4;1.85;;;;;;;6.02;82.68652;95727.66;;;;
2024/02/14 01:50:28;;;;;;;2.4;1.85;;;;;;;6.02;82.68652;95727.66;;;;
2024/02/14 01:51:29;;;;;;;2.4;1.85;;;;;;;6.02;82.68652;95727.66;;;;
2024/02/14 01:52:31;;;;;;;2.4;1.85;;;;;;;6.02;82.68652;95727.66;;;;
2024/02/14 01:53:31;;;;;;;2.4;1.85;;;;;;;6.02;82.68652;95727.66;;;;
2024/02/14 01:54:32;;;;;;;2.4;1.85;;;;;;;6.02;82.68652;95727.66;;;;
2024/02/14 01:55:34;;;;;;;3.7;1.9;;;;;;;6.11;83.3418;95738.83;;;;
2024/02/14 01:56:35;;;;;;;3.7;1.9;;;;;;;6.11;83.3418;95738.83;;;;
2024/02/14 01:57:37;;;;;;;3.7;1.9;;;;;;;6.11;83.3418;95738.83;;;;
2024/02/14 01:58:39;;;;;;;3.7;1.9;;;;;;;6.11;83.3418;95738.83;;;;
2024/02/14 01:59:39;;;;;;;3.7;1.9;;;;;;;6.11;83.3418;95738.83;;;;
2024/02/14 02:00:41;;;;;;;3.7;1.9;;;;;;;6.11;83.3418;95738.83;;;;
2024/02/14 02:01:42;;;;;;;3.7;1.9;;;;;;;6.11;83.3418;95738.83;;;;
2024/02/14 02:02:43;;;;;;;3.7;1.9;;;;;;;6.11;83.3418;95738.83;;;;
2024/02/14 02:03:44;;;;;;;3.7;1.9;;;;;;;6.11;83.3418;95738.83;;;;
2024/02/14 02:04:44;;;;;;;3.7;1.9;;;;;;;6.11;83.3418;95738.83;;;;
2024/02/14 02:05:45;;;;;;;2.1;1.7;;;;;;;6.26;82.56152;95736.69;;;;
2024/02/14 02:06:45;;;;;;;2.1;1.7;;;;;;;6.26;82.56152;95736.69;;;;
2024/02/14 02:07:48;;;;;;;2.1;1.7;;;;;;;6.26;82.56152;95736.69;;;;
2024/02/14 02:08:50;;;;;;;2.1;1.7;;;;;;;6.26;82.56152;95736.69;;;;
2024/02/14 02:09:50;;;;;;;2.1;1.7;;;;;;;6.26;82.56152;95736.69;;;;
2024/02/14 02:10:51;;;;;;;2.1;1.7;;;;;;;6.26;82.56152;95736.69;;;;
2024/02/14 02:11:53;;;;;;;2.1;1.7;;;;;;;6.26;82.56152;95736.69;;;;
2024/02/14 02:12:54;;;;;;;2.1;1.7;;;;;;;6.26;82.56152;95736.69;;;;
2024/02/14 02:13:58;;;;;;;2.1;1.7;;;;;;;6.26;82.56152;95736.69;;;;
2024/02/14 02:14:58;;;;;;;2.1;1.7;;;;;;;6.26;82.56152;95736.69;;;;
2024/02/14 02:16:01;;;;;;;2.1;1.7;;;;;;;6.26;82.56152;95736.69;;;;
2024/02/14 02:17:02;;;;;;;2.8;2.2;;;;;;;6.11;83.32031;95742.77;;;;
2024/02/14 02:18:05;;;;;;;2.8;2.2;;;;;;;6.11;83.32031;95742.77;;;;
2024/02/14 02:19:09;;;;;;;2.8;2.2;;;;;;;6.11;83.32031;95742.77;;;;
2024/02/14 02:20:09;;;;;;;2.8;2.2;;;;;;;6.11;83.32031;95742.77;;;;
2024/02/14 02:21:12;;;;;;;2.8;2.2;;;;;;;6.11;83.32031;95742.77;;;;
2024/02/14 02:22:13;;;;;;;2.8;2.2;;;;;;;6.11;83.32031;95742.77;;;;
2024/02/14 02:23:14;;;;;;;2.8;2.2;;;;;;;6.11;83.32031;95742.77;;;;
2024/02/14 02:24:15;;;;;;;2.8;2.2;;;;;;;6.11;83.32031;95742.77;;;;
2024/02/14 02:25:15;;;;;;;2.8;2.2;;;;;;;6.11;83.32031;95742.77;;;;
2024/02/14 02:26:16;;;;;;;2.8;2.2;;;;;;;6.11;83.32031;95742.77;;;;
2024/02/14 02:27:16;;;;;;;2.85;1.8;;;;;;;6.12;83.1084;95739.65;;;;
2024/02/14 02:28:16;;;;;;;2.85;1.8;;;;;;;6.12;83.1084;95739.65;;;;
2024/02/14 02:29:19;;;;;;;2.85;1.8;;;;;;;6.12;83.1084;95739.65;;;;
2024/02/14 02:30:19;;;;;;;2.85;1.8;;;;;;;6.12;83.1084;95739.65;;;;
2024/02/14 02:31:20;;;;;;;2.85;1.8;;;;;;;6.12;83.1084;95739.65;;;;
2024/02/14 02:32:21;;;;;;;2.85;1.8;;;;;;;6.12;83.1084;95739.65;;;;
2024/02/14 02:33:21;;;;;;;2.85;1.8;;;;;;;6.12;83.1084;95739.65;;;;
2024/02/14 02:34:22;;;;;;;2.85;1.8;;;;;;;6.12;83.1084;95739.65;;;;
2024/02/14 02:35:24;;;;;;;2.85;1.8;;;;;;;6.12;83.1084;95739.65;;;;
2024/02/14 02:36:25;;;;;;;2.85;1.8;;;;;;;6.12;83.1084;95739.65;;;;
2024/02/14 02:37:25;;;;;;;2.85;1.8;;;;;;;6.12;83.1084;95739.65;;;;
2024/02/14 02:38:26;;;;;;;2.1;1.9;;;;;;;6.17;82.80176;95735.94;;;;
2024/02/14 02:39:26;;;;;;;2.1;1.9;;;;;;;6.17;82.80176;95735.94;;;;
2024/02/14 02:40:27;;;;;;;2.1;1.9;;;;;;;6.17;82.80176;95735.94;;;;
2024/02/14 02:41:27;;;;;;;2.1;1.9;;;;;;;6.17;82.80176;95735.94;;;;
2024/02/14 02:42:28;;;;;;;2.1;1.9;;;;;;;6.17;82.80176;95735.94;;;;
2024/02/14 02:43:30;;;;;;;2.1;1.9;;;;;;;6.17;82.80176;95735.94;;;;
2024/02/14 02:44:30;;;;;;;2.1;1.9;;;;;;;6.17;82.80176;95735.94;;;;
2024/02/14 02:45:31;;;;;;;2.1;1.9;;;;;;;6.17;82.80176;95735.94;;;;
2024/02/14 02:46:32;;;;;;;2.1;1.9;;;;;;;6.17;82.80176;95735.94;;;;
2024/02/14 02:47:32;;;;;;;2.1;1.9;;;;;;;6.17;82.80176;95735.94;;;;
2024/02/14 02:48:33;;;;;;;2.8;1.9;;;;;;;6.3;82.16699;95736.27;;;;
2024/02/14 02:49:33;;;;;;;2.8;1.9;;;;;;;6.3;82.16699;95736.27;;;;
2024/02/14 02:50:34;;;;;;;2.8;1.9;;;;;;;6.3;82.16699;95736.27;;;;
2024/02/14 02:51:34;;;;;;;2.8;1.9;;;;;;;6.3;82.16699;95736.27;;;;
2024/02/14 02:52:34;;;;;;;2.8;1.9;;;;;;;6.3;82.16699;95736.27;;;;
2024/02/14 02:53:36;;;;;;;2.8;1.9;;;;;;;6.3;82.16699;95736.27;;;;
2024/02/14 02:54:40;;;;;;;2.8;1.9;;;;;;;6.3;82.16699;95736.27;;;;
2024/02/14 02:55:41;;;;;;;2.8;1.9;;;;;;;6.3;82.16699;95736.27;;;;
2024/02/14 02:56:42;;;;;;;2.8;1.9;;;;;;;6.3;82.16699;95736.27;;;;
2024/02/14 02:57:43;;;;;;;2.8;1.9;;;;;;;6.3;82.16699;95736.27;;;;
2024/02/14 02:58:44;;;;;;;2.8;1.9;;;;;;;6.3;82.16699;95736.27;;;;
2024/02/14 02:59:45;;;;;;;2.1;1.9;;;;;;;6.37;82.09375;95732.86;;;;
2024/02/14 03:00:49;;;;;;;2.1;1.9;;;;;;;6.37;82.09375;95732.86;;;;
2024/02/14 03:01:49;;;;;;;2.1;1.9;;;;;;;6.37;82.09375;95732.86;;;;
2024/02/14 03:02:50;;;;;;;2.1;1.9;;;;;;;6.37;82.09375;95732.86;;;;
2024/02/14 03:03:50;;;;;;;2.1;1.9;;;;;;;6.37;82.09375;95732.86;;;;
2024/02/14 03:04:51;;;;;;;2.1;1.9;;;;;;;6.37;82.09375;95732.86;;;;
2024/02/14 03:05:51;;;;;;;2.1;1.9;;;;;;;6.37;82.09375;95732.86;;;;
2024/02/14 03:06:52;;;;;;;2.1;1.9;;;;;;;6.37;82.09375;95732.86;;;;
2024/02/14 03:07:52;;;;;;;2.1;1.9;;;;;;;6.37;82.09375;95732.86;;;;
2024/02/14 03:08:55;;;;;;;2.1;1.9;;;;;;;6.37;82.09375;95732.86;;;;
2024/02/14 03:09:56;;;;;;;2.1;1.75;;;;;;;6.49;81.37109;95731.44;;;;
2024/02/14 03:10:59;;;;;;;2.1;1.75;;;;;;;6.49;81.37109;95731.44;;;;
2024/02/14 03:12:03;;;;;;;2.1;1.75;;;;;;;6.49;81.37109;95731.44;;;;
2024/02/14 03:13:05;;;;;;;2.1;1.75;;;;;;;6.49;81.37109;95731.44;;;;
2024/02/14 03:14:05;;;;;;;2.1;1.75;;;;;;;6.49;81.37109;95731.44;;;;
2024/02/14 03:15:09;;;;;;;2.1;1.75;;;;;;;6.49;81.37109;95731.44;;;;
2024/02/14 03:16:11;;;;;;;2.1;1.75;;;;;;;6.49;81.37109;95731.44;;;;
2024/02/14 03:17:11;;;;;;;2.1;1.75;;;;;;;6.49;81.37109;95731.44;;;;
2024/02/14 03:18:11;;;;;;;2.1;1.75;;;;;;;6.49;81.37109;95731.44;;;;
2024/02/14 03:19:12;;;;;;;2.1;1.75;;;;;;;6.49;81.37109;95731.44;;;;
2024/02/14 03:20:13;;;;;;;2.1;1.75;;;;;;;6.49;81.37109;95731.44;;;;
2024/02/14 03:21:14;;;;;;;1.8;1.7;;;;;;;6.41;81.18848;95740.62;;;;
2024/02/14 03:22:14;;;;;;;1.8;1.7;;;;;;;6.41;81.18848;95740.62;;;;
2024/02/14 03:23:15;;;;;;;1.8;1.7;;;;;;;6.41;81.18848;95740.62;;;;
2024/02/14 03:24:15;;;;;;;1.8;1.7;;;;;;;6.41;81.18848;95740.62;;;;
2024/02/14 03:25:16;;;;;;;1.8;1.7;;;;;;;6.41;81.18848;95740.62;;;;
2024/02/14 03:26:18;;;;;;;1.8;1.7;;;;;;;6.41;81.18848;95740.62;;;;
2024/02/14 03:27:19;;;;;;;1.8;1.7;;;;;;;6.41;81.18848;95740.62;;;;
2024/02/14 03:28:20;;;;;;;1.8;1.7;;;;;;;6.41;81.18848;95740.62;;;;
2024/02/14 03:29:20;;;;;;;1.8;1.7;;;;;;;6.41;81.18848;95740.62;;;;
2024/02/14 03:30:22;;;;;;;1.8;1.7;;;;;;;6.41;81.18848;95740.62;;;;
2024/02/14 03:31:23;;;;;;;1.7;1.6;;;;;;;5.98;82.16992;95738.58;;;;
2024/02/14 03:32:23;;;;;;;1.7;1.6;;;;;;;5.98;82.16992;95738.58;;;;
2024/02/14 03:33:24;;;;;;;1.7;1.6;;;;;;;5.98;82.16992;95738.58;;;;
2024/02/14 03:34:25;;;;;;;1.7;1.6;;;;;;;5.98;82.16992;95738.58;;;;
2024/02/14 03:35:26;;;;;;;1.7;1.6;;;;;;;5.98;82.16992;95738.58;;;;
2024/02/14 03:36:30;;;;;;;1.7;1.6;;;;;;;5.98;82.16992;95738.58;;;;
2024/02/14 03:37:31;;;;;;;1.7;1.6;;;;;;;5.98;82.16992;95738.58;;;;
2024/02/14 03:38:32;;;;;;;1.7;1.6;;;;;;;5.98;82.16992;95738.58;;;;
2024/02/14 03:39:32;;;;;;;1.7;1.6;;;;;;;5.98;82.16992;95738.58;;;;
2024/02/14 03:40:33;;;;;;;1.7;1.6;;;;;;;5.98;82.16992;95738.58;;;;
2024/02/14 03:41:33;;;;;;;1.7;1.6;;;;;;;5.98;82.16992;95738.58;;;;
2024/02/14 03:42:34;;;;;;;2.4;1.8;;;;;;;5.84;81.65332;95744.15;;;;
2024/02/14 03:43:34;;;;;;;2.4;1.8;;;;;;;5.84;81.65332;95744.15;;;;
2024/02/14 03:44:35;;;;;;;2.4;1.8;;;;;;;5.84;81.65332;95744.15;;;;
2024/02/14 03:45:35;;;;;;;2.4;1.8;;;;;;;5.84;81.65332;95744.15;;;;
2024/02/14 03:46:36;;;;;;;2.4;1.8;;;;;;;5.84;81.65332;95744.15;;;;
2024/02/14 03:47:39;;;;;;;2.4;1.8;;;;;;;5.84;81.65332;95744.15;;;;
2024/02/14 03:48:41;;;;;;;2.4;1.8;;;;;;;5.84;81.65332;95744.15;;;;
2024/02/14 03:49:43;;;;;;;2.4;1.8;;;;;;;5.84;81.65332;95744.15;;;;
2024/02/14 03:50:43;;;;;;;2.4;1.8;;;;;;;5.84;81.65332;95744.15;;;;
2024/02/14 03:51:44;;;;;;;2.4;1.8;;;;;;;5.84;81.65332;95744.15;;;;
2024/02/14 03:52:45;;;;;;;1.9;1.7;;;;;;;5.76;80.20508;95748.1;;;;
2024/02/14 03:53:45;;;;;;;1.9;1.7;;;;;;;5.76;80.20508;95748.1;;;;
2024/02/14 03:54:45;;;;;;;1.9;1.7;;;;;;;5.76;80.20508;95748.1;;;;
2024/02/14 03:55:46;;;;;;;1.9;1.7;;;;;;;5.76;80.20508;95748.1;;;;
2024/02/14 03:56:47;;;;;;;1.9;1.7;;;;;;;5.76;80.20508;95748.1;;;;
2024/02/14 03:57:48;;;;;;;1.9;1.7;;;;;;;5.76;80.20508;95748.1;;;;
2024/02/14 03:58:48;;;;;;;1.9;1.7;;;;;;;5.76;80.20508;95748.1;;;;
2024/02/14 03:59:49;;;;;;;1.9;1.7;;;;;;;5.76;80.20508;95748.1;;;;
2024/02/14 04:00:50;;;;;;;1.9;1.7;;;;;;;5.76;80.20508;95748.1;;;;
2024/02/14 04:01:53;;;;;;;1.9;1.7;;;;;;;5.76;80.20508;95748.1;;;;
2024/02/14 04:02:58;;;;;;;1.9;1.7;;;;;;;5.76;80.20508;95748.1;;;;
2024/02/14 04:03:59;;;;;;;3.65;1.85;;;;;;;5.46;79.32129;95753.23;;;;
2024/02/14 04:04:59;;;;;;;3.65;1.85;;;;;;;5.46;79.32129;95753.23;;;;
2024/02/14 04:06:00;;;;;;;3.65;1.85;;;;;;;5.46;79.32129;95753.23;;;;
2024/02/14 04:07:01;;;;;;;3.65;1.85;;;;;;;5.46;79.32129;95753.23;;;;
2024/02/14 04:08:03;;;;;;;3.65;1.85;;;;;;;5.46;79.32129;95753.23;;;;
2024/02/14 04:09:04;;;;;;;3.65;1.85;;;;;;;5.46;79.32129;95753.23;;;;
2024/02/14 04:10:04;;;;;;;3.65;1.85;;;;;;;5.46;79.32129;95753.23;;;;
2024/02/14 04:11:06;;;;;;;3.65;1.85;;;;;;;5.46;79.32129;95753.23;;;;
2024/02/14 04:12:06;;;;;;;3.65;1.85;;;;;;;5.46;79.32129;95753.23;;;;
2024/02/14 04:13:09;;;;;;;3.65;1.85;;;;;;;5.46;79.32129;95753.23;;;;
2024/02/14 04:14:10;;;;;;;2.05;1.9;;;;;;;5.14;79.09473;95746.25;;;;
2024/02/14 04:15:11;;;;;;;2.05;1.9;;;;;;;5.14;79.09473;95746.25;;;;
2024/02/14 04:16:12;;;;;;;2.05;1.9;;;;;;;5.14;79.09473;95746.25;;;;
2024/02/14 04:17:13;;;;;;;2.05;1.9;;;;;;;5.14;79.09473;95746.25;;;;
2024/02/14 04:18:14;;;;;;;2.05;1.9;;;;;;;5.14;79.09473;95746.25;;;;
2024/02/14 04:19:17;;;;;;;2.05;1.9;;;;;;;5.14;79.09473;95746.25;;;;
2024/02/14 04:20:17;;;;;;;2.05;1.9;;;;;;;5.14;79.09473;95746.25;;;;
2024/02/14 04:21:18;;;;;;;2.05;1.9;;;;;;;5.14;79.09473;95746.25;;;;
2024/02/14 04:22:21;;;;;;;2.05;1.9;;;;;;;5.14;79.09473;95746.25;;;;
2024/02/14 04:23:22;;;;;;;2.05;1.9;;;;;;;5.14;79.09473;95746.25;;;;
2024/02/14 04:24:22;;;;;;;2.05;1.9;;;;;;;5.14;79.09473;95746.25;;;;
2024/02/14 04:25:23;;;;;;;2.05;1.9;;;;;;;5.14;79.09473;95746.25;;;;
2024/02/14 04:26:24;;;;;;;2.05;1.9;;;;;;;5.14;79.09473;95746.25;;;;
2024/02/14 04:27:24;;;;;;;2.05;1.9;;;;;;;5.14;79.09473;95746.25;;;;
2024/02/14 04:28:25;;;;;;;2.05;1.9;;;;;;;5.14;79.09473;95746.25;;;;
2024/02/14 04:29:26;;;;;;;2.05;1.9;;;;;;;5.14;79.09473;95746.25;;;;
2024/02/14 04:30:27;;;;;;;2.05;1.9;;;;;;;5.14;79.09473;95746.25;;;;
2024/02/14 04:31:29;;;;;;;2.05;1.9;;;;;;;5.14;79.09473;95746.25;;;;
2024/02/14 04:32:30;;;;;;;2.05;1.9;;;;;;;5.14;79.09473;95746.25;;;;
2024/02/14 04:33:30;;;;;;;2.05;1.9;;;;;;;5.14;79.09473;95746.25;;;;
2024/02/14 04:34:31;;;;;;;2.05;1.9;;;;;;;5.14;79.09473;95746.25;;;;
2024/02/14 04:35:31;;;;;;;2.650001;2.2;;;;;;;4.67;80.30176;95736.58;;;;
2024/02/14 04:36:33;;;;;;;2.650001;2.2;;;;;;;4.67;80.30176;95736.58;;;;
2024/02/14 04:37:33;;;;;;;2.650001;2.2;;;;;;;4.67;80.30176;95736.58;;;;
2024/02/14 04:38:33;;;;;;;2.650001;2.2;;;;;;;4.67;80.30176;95736.58;;;;
2024/02/14 04:39:34;;;;;;;2.650001;2.2;;;;;;;4.67;80.30176;95736.58;;;;
2024/02/14 04:40:34;;;;;;;2.650001;2.2;;;;;;;4.67;80.30176;95736.58;;;;
2024/02/14 04:41:37;;;;;;;2.650001;2.2;;;;;;;4.67;80.30176;95736.58;;;;
2024/02/14 04:42:37;;;;;;;2.650001;2.2;;;;;;;4.67;80.30176;95736.58;;;;
2024/02/14 04:43:38;;;;;;;2.650001;2.2;;;;;;;4.67;80.30176;95736.58;;;;
2024/02/14 04:44:39;;;;;;;2.650001;2.2;;;;;;;4.67;80.30176;95736.58;;;;
2024/02/14 04:45:39;;;;;;;2.650001;2.2;;;;;;;4.67;80.30176;95736.58;;;;
2024/02/14 04:46:43;;;;;;;2.3;2.1;;;;;;;4.79;82.27246;95743.62;;;;
2024/02/14 04:47:44;;;;;;;2.3;2.1;;;;;;;4.79;82.27246;95743.62;;;;
2024/02/14 04:48:44;;;;;;;2.3;2.1;;;;;;;4.79;82.27246;95743.62;;;;
2024/02/14 04:49:45;;;;;;;2.3;2.1;;;;;;;4.79;82.27246;95743.62;;;;
2024/02/14 04:50:45;;;;;;;2.3;2.1;;;;;;;4.79;82.27246;95743.62;;;;
2024/02/14 04:51:46;;;;;;;2.3;2.1;;;;;;;4.79;82.27246;95743.62;;;;
2024/02/14 04:52:47;;;;;;;2.3;2.1;;;;;;;4.79;82.27246;95743.62;;;;
2024/02/14 04:53:47;;;;;;;2.3;2.1;;;;;;;4.79;82.27246;95743.62;;;;
2024/02/14 04:54:48;;;;;;;2.3;2.1;;;;;;;4.79;82.27246;95743.62;;;;
2024/02/14 04:55:48;;;;;;;2.3;2.1;;;;;;;4.79;82.27246;95743.62;;;;
2024/02/14 04:56:49;;;;;;;3.5;1.9;;;;;;;5.05;82.68262;95737.69;;;;
2024/02/14 04:57:50;;;;;;;3.5;1.9;;;;;;;5.05;82.68262;95737.69;;;;
2024/02/14 04:58:50;;;;;;;3.5;1.9;;;;;;;5.05;82.68262;95737.69;;;;
2024/02/14 04:59:51;;;;;;;3.5;1.9;;;;;;;5.05;82.68262;95737.69;;;;
2024/02/14 05:00:52;;;;;;;3.5;1.9;;;;;;;5.05;82.68262;95737.69;;;;
2024/02/14 05:01:53;;;;;;;3.5;1.9;;;;;;;5.05;82.68262;95737.69;;;;
2024/02/14 05:02:53;;;;;;;3.5;1.9;;;;;;;5.05;82.68262;95737.69;;;;
2024/02/14 05:03:54;;;;;;;3.5;1.9;;;;;;;5.05;82.68262;95737.69;;;;
2024/02/14 05:04:55;;;;;;;3.5;1.9;;;;;;;5.05;82.68262;95737.69;;;;
2024/02/14 05:05:55;;;;;;;3.5;1.9;;;;;;;5.05;82.68262;95737.69;;;;
2024/02/14 05:06:56;;;;;;;3.5;1.9;;;;;;;5.05;82.68262;95737.69;;;;
2024/02/14 05:07:56;;;;;;;2.5;1.8;;;;;;;5.21;82.58594;95735.44;;;;
2024/02/14 05:08:56;;;;;;;2.5;1.8;;;;;;;5.21;82.58594;95735.44;;;;
2024/02/14 05:09:57;;;;;;;2.5;1.8;;;;;;;5.21;82.58594;95735.44;;;;
2024/02/14 05:10:57;;;;;;;2.5;1.8;;;;;;;5.21;82.58594;95735.44;;;;
2024/02/14 05:11:59;;;;;;;2.5;1.8;;;;;;;5.21;82.58594;95735.44;;;;
2024/02/14 05:12:59;;;;;;;2.5;1.8;;;;;;;5.21;82.58594;95735.44;;;;
2024/02/14 05:14:01;;;;;;;2.5;1.8;;;;;;;5.21;82.58594;95735.44;;;;
2024/02/14 05:15:02;;;;;;;2.5;1.8;;;;;;;5.21;82.58594;95735.44;;;;
2024/02/14 05:16:04;;;;;;;2.5;1.8;;;;;;;5.21;82.58594;95735.44;;;;
2024/02/14 05:17:05;;;;;;;2.5;1.8;;;;;;;5.21;82.58594;95735.44;;;;
2024/02/14 05:18:07;;;;;;;2.5;1.8;;;;;;;5.21;82.58594;95735.44;;;;
2024/02/14 05:19:07;;;;;;;2.5;1.8;;;;;;;5.21;82.58594;95735.44;;;;
2024/02/14 05:20:08;;;;;;;2.5;1.8;;;;;;;5.21;82.58594;95735.44;;;;
2024/02/14 05:21:10;;;;;;;2.5;1.8;;;;;;;5.21;82.58594;95735.44;;;;
2024/02/14 05:22:10;;;;;;;2.5;1.8;;;;;;;5.21;82.58594;95735.44;;;;
2024/02/14 05:23:11;;;;;;;2.5;1.8;;;;;;;5.21;82.58594;95735.44;;;;
2024/02/14 05:24:11;;;;;;;2.5;1.8;;;;;;;5.21;82.58594;95735.44;;;;
2024/02/14 05:25:11;;;;;;;2.5;1.8;;;;;;;5.21;82.58594;95735.44;;;;
2024/02/14 05:26:12;;;;;;;2.5;1.8;;;;;;;5.21;82.58594;95735.44;;;;
2024/02/14 05:27:12;;;;;;;2.5;1.8;;;;;;;5.21;82.58594;95735.44;;;;
2024/02/14 05:28:14;;;;;;;2.5;1.8;;;;;;;5.21;82.58594;95735.44;;;;
2024/02/14 05:29:15;;;;;;;2.5;1.8;;;;;;;5.21;82.58594;95735.44;;;;
2024/02/14 05:30:15;;;;;;;2.5;1.8;;;;;;;5.21;82.58594;95735.44;;;;
2024/02/14 05:31:16;;;;;;;2.5;1.8;;;;;;;5.21;82.58594;95735.44;;;;
2024/02/14 05:32:17;;;;;;;2.5;1.8;;;;;;;5.21;82.58594;95735.44;;;;
2024/02/14 05:33:21;;;;;;;2.5;1.8;;;;;;;5.21;82.58594;95735.44;;;;
2024/02/14 05:34:22;;;;;;;2.5;1.8;;;;;;;5.21;82.58594;95735.44;;;;
2024/02/14 05:35:23;;;;;;;2.5;1.8;;;;;;;5.21;82.58594;95735.44;;;;
2024/02/14 05:36:25;;;;;;;2.5;1.8;;;;;;;5.21;82.58594;95735.44;;;;
2024/02/14 05:37:27;;;;;;;2.5;1.8;;;;;;;5.21;82.58594;95735.44;;;;
2024/02/14 05:38:29;;;;;;;2.5;1.8;;;;;;;5.21;82.58594;95735.44;;;;
2024/02/14 05:39:30;;;;;;;2.4;1.7;;;;;;;5.47;83.10059;95740.01;;;;
2024/02/14 05:40:30;;;;;;;2.4;1.7;;;;;;;5.47;83.10059;95740.01;;;;
2024/02/14 05:41:32;;;;;;;2.4;1.7;;;;;;;5.47;83.10059;95740.01;;;;
2024/02/14 05:42:34;;;;;;;2.4;1.7;;;;;;;5.47;83.10059;95740.01;;;;
2024/02/14 05:43:34;;;;;;;2.4;1.7;;;;;;;5.47;83.10059;95740.01;;;;
2024/02/14 05:44:35;;;;;;;2.4;1.7;;;;;;;5.47;83.10059;95740.01;;;;
2024/02/14 05:45:35;;;;;;;2.4;1.7;;;;;;;5.47;83.10059;95740.01;;;;
2024/02/14 05:46:36;;;;;;;2.4;1.7;;;;;;;5.47;83.10059;95740.01;;;;
2024/02/14 05:47:36;;;;;;;2.4;1.7;;;;;;;5.47;83.10059;95740.01;;;;
2024/02/14 05:48:37;;;;;;;2.4;1.7;;;;;;;5.47;83.10059;95740.01;;;;
2024/02/14 05:49:39;;;;;;;2.4;1.7;;;;;;;5.47;83.10059;95740.01;;;;
2024/02/14 05:50:40;;;;;;;2.4;1.7;;;;;;;5.47;83.10059;95740.01;;;;
2024/02/14 05:51:40;;;;;;;2.4;1.7;;;;;;;5.47;83.10059;95740.01;;;;
2024/02/14 05:52:41;;;;;;;2.4;1.7;;;;;;;5.47;83.10059;95740.01;;;;
2024/02/14 05:53:42;;;;;;;2.4;1.7;;;;;;;5.47;83.10059;95740.01;;;;
2024/02/14 05:54:42;;;;;;;2.4;1.7;;;;;;;5.47;83.10059;95740.01;;;;
2024/02/14 05:55:43;;;;;;;2.4;1.7;;;;;;;5.47;83.10059;95740.01;;;;
2024/02/14 05:56:43;;;;;;;2.4;1.7;;;;;;;5.47;83.10059;95740.01;;;;
2024/02/14 05:57:44;;;;;;;2.4;1.7;;;;;;;5.47;83.10059;95740.01;;;;
2024/02/14 05:58:44;;;;;;;2.4;1.7;;;;;;;5.47;83.10059;95740.01;;;;